createdAt,value
2018-05-19T00:01:01.944Z,99.90
2018-05-19T00:02:04.490Z,99.90
2018-05-19T00:03:07.795Z,99.90
2018-05-19T00:04:10.389Z,99.90
2018-05-19T00:05:12.920Z,99.90
2018-05-19T00:06:16.211Z,99.90
2018-05-19T00:07:18.743Z,99.90
2018-05-19T00:08:21.288Z,99.90
2018-05-19T00:09:23.895Z,99.90
2018-05-19T00:10:27.198Z,99.90
2018-05-19T00:11:29.736Z,99.90
2018-05-19T00:12:33.042Z,99.90
2018-05-19T00:13:35.588Z,99.90
2018-05-19T00:14:38.145Z,99.90
2018-05-19T00:15:40.679Z,99.90
2018-05-19T00:16:43.218Z,99.90
2018-05-19T00:17:45.743Z,99.90
2018-05-19T00:18:48.305Z,99.90
2018-05-19T00:19:50.839Z,99.90
2018-05-19T00:20:53.369Z,99.90
2018-05-19T00:21:56.664Z,99.90
2018-05-19T00:22:59.206Z,99.90
2018-05-19T00:24:02.547Z,99.90
2018-05-19T00:25:05.086Z,99.90
2018-05-19T00:26:07.660Z,99.90
2018-05-19T00:27:10.200Z,99.90
2018-05-19T00:28:13.501Z,99.90
2018-05-19T00:29:16.031Z,99.90
2018-05-19T00:30:18.596Z,99.90
2018-05-19T00:31:21.131Z,99.90
2018-05-19T00:32:23.660Z,99.90
2018-05-19T00:33:26.212Z,99.90
2018-05-19T00:34:29.519Z,99.90
2018-05-19T00:35:32.088Z,99.90
2018-05-19T00:36:34.625Z,99.90
2018-05-19T00:37:37.964Z,99.90
2018-05-19T00:38:41.308Z,99.90
2018-05-19T00:39:43.852Z,99.90
2018-05-19T00:40:46.378Z,99.90
2018-05-19T00:41:48.909Z,99.90
2018-05-19T00:42:51.481Z,99.90
2018-05-19T00:43:54.071Z,99.90
2018-05-19T00:44:56.640Z,99.90
2018-05-19T00:45:59.170Z,99.90
2018-05-19T00:47:01.707Z,99.90
2018-05-19T00:48:04.253Z,99.90
2018-05-19T00:49:06.820Z,99.90
2018-05-19T00:50:09.359Z,99.90
2018-05-19T00:51:11.883Z,99.90
2018-05-19T00:52:15.189Z,99.90
2018-05-19T00:53:17.777Z,99.90
2018-05-19T00:54:20.312Z,99.90
2018-05-19T00:55:23.612Z,99.90
2018-05-19T00:56:26.143Z,99.90
2018-05-19T00:57:28.659Z,99.90
2018-05-19T00:58:31.241Z,99.90
2018-05-19T00:59:33.781Z,99.90
2018-05-19T01:00:36.327Z,99.90
2018-05-19T01:01:39.623Z,99.90
2018-05-19T01:02:42.157Z,99.90
2018-05-19T01:03:44.769Z,99.90
2018-05-19T01:04:47.340Z,99.90
2018-05-19T01:05:49.872Z,99.90
2018-05-19T01:06:53.177Z,99.90
2018-05-19T01:07:55.764Z,99.90
2018-05-19T01:08:58.299Z,99.90
2018-05-19T01:10:00.844Z,99.90
2018-05-19T01:11:03.408Z,99.90
2018-05-19T01:12:05.944Z,99.90
2018-05-19T01:13:08.512Z,99.90
2018-05-19T01:14:11.036Z,99.90
2018-05-19T01:15:13.567Z,99.90
2018-05-19T01:16:16.099Z,99.90
2018-05-19T01:17:19.392Z,99.90
2018-05-19T01:18:21.956Z,99.90
2018-05-19T01:19:24.495Z,99.90
2018-05-19T01:20:27.023Z,99.90
2018-05-19T01:21:29.560Z,99.90
2018-05-19T01:22:32.081Z,99.90
2018-05-19T01:23:35.419Z,99.90
2018-05-19T01:24:37.977Z,99.90
2018-05-19T01:25:40.517Z,99.90
2018-05-19T01:26:43.052Z,99.90
2018-05-19T01:27:46.342Z,99.90
2018-05-19T01:28:49.651Z,99.90
2018-05-19T01:29:52.220Z,99.90
2018-05-19T01:30:54.756Z,99.90
2018-05-19T01:31:58.050Z,99.90
2018-05-19T01:33:01.357Z,99.90
2018-05-19T01:34:03.930Z,99.90
2018-05-19T01:35:06.488Z,99.90
2018-05-19T01:36:09.031Z,99.90
2018-05-19T01:37:12.333Z,99.90
2018-05-19T01:38:14.860Z,99.90
2018-05-19T01:39:17.420Z,99.90
2018-05-19T01:40:19.960Z,99.90
2018-05-19T01:41:22.895Z,99.90
2018-05-19T01:42:26.244Z,99.90
2018-05-19T01:43:28.771Z,99.90
2018-05-19T01:44:31.320Z,99.90
2018-05-19T01:45:33.844Z,99.90
2018-05-19T01:46:36.380Z,99.90
2018-05-19T01:47:38.941Z,99.90
2018-05-19T01:48:41.467Z,99.90
2018-05-19T01:49:44.756Z,99.90
2018-05-19T01:50:48.051Z,99.90
2018-05-19T01:51:50.576Z,99.90
2018-05-19T01:52:53.138Z,99.90
2018-05-19T01:53:55.670Z,99.90
2018-05-19T01:54:58.231Z,99.90
2018-05-19T01:56:00.763Z,99.90
2018-05-19T01:57:04.088Z,99.90
2018-05-19T01:58:06.621Z,99.90
2018-05-19T01:59:09.925Z,99.90
2018-05-19T02:00:12.456Z,99.90
2018-05-19T02:01:15.796Z,99.90
2018-05-19T02:02:18.324Z,99.90
2018-05-19T02:03:20.862Z,99.90
2018-05-19T02:04:23.399Z,99.90
2018-05-19T02:05:25.975Z,99.90
2018-05-19T02:06:28.515Z,99.90
2018-05-19T02:07:31.052Z,99.90
2018-05-19T02:08:34.354Z,99.90
2018-05-19T02:09:36.895Z,99.90
2018-05-19T02:10:40.220Z,99.90
2018-05-19T02:11:42.749Z,99.90
2018-05-19T02:12:46.059Z,99.90
2018-05-19T02:13:48.580Z,99.90
2018-05-19T02:14:51.153Z,99.90
2018-05-19T02:15:53.684Z,99.90
2018-05-19T02:16:56.204Z,99.90
2018-05-19T02:17:59.511Z,99.90
2018-05-19T02:19:02.092Z,99.90
2018-05-19T02:20:04.612Z,99.90
2018-05-19T02:21:07.916Z,99.90
2018-05-19T02:22:10.444Z,99.90
2018-05-19T02:23:13.030Z,99.90
2018-05-19T02:24:16.328Z,99.90
2018-05-19T02:25:18.864Z,99.90
2018-05-19T02:26:21.398Z,99.90
2018-05-19T02:27:23.940Z,99.90
2018-05-19T02:28:26.509Z,99.90
2018-05-19T02:29:29.037Z,99.90
2018-05-19T02:30:32.334Z,99.90
2018-05-19T02:31:35.631Z,99.90
2018-05-19T02:32:38.162Z,99.90
2018-05-19T02:33:40.724Z,99.90
2018-05-19T02:34:43.263Z,99.90
2018-05-19T02:35:45.833Z,99.90
2018-05-19T02:36:48.373Z,99.90
2018-05-19T02:37:50.901Z,99.90
2018-05-19T02:38:53.429Z,99.90
2018-05-19T02:39:55.964Z,99.90
2018-05-19T02:40:58.524Z,99.90
2018-05-19T02:42:01.058Z,99.90
2018-05-19T02:43:03.584Z,99.90
2018-05-19T02:44:06.160Z,99.90
2018-05-19T02:45:08.683Z,99.90
2018-05-19T02:46:11.225Z,99.90
2018-05-19T02:47:13.763Z,99.90
2018-05-19T02:48:16.291Z,99.90
2018-05-19T02:49:18.850Z,99.90
2018-05-19T02:50:22.143Z,99.90
2018-05-19T02:51:24.674Z,99.90
2018-05-19T02:52:27.200Z,99.90
2018-05-19T02:53:29.732Z,99.90
2018-05-19T02:54:33.065Z,99.90
2018-05-19T02:55:35.599Z,99.90
2018-05-19T02:56:38.134Z,99.90
2018-05-19T02:57:41.443Z,99.90
2018-05-19T02:58:43.969Z,99.90
2018-05-19T02:59:46.541Z,99.90
2018-05-19T03:00:49.095Z,99.90
2018-05-19T03:01:51.676Z,99.90
2018-05-19T03:02:54.217Z,99.90
2018-05-19T03:03:56.798Z,99.90
2018-05-19T03:04:59.325Z,99.90
2018-05-19T03:06:01.860Z,99.90
2018-05-19T03:07:05.175Z,99.90
2018-05-19T03:08:07.701Z,99.90
2018-05-19T03:09:11.003Z,99.90
2018-05-19T03:10:13.532Z,99.90
2018-05-19T03:11:16.060Z,99.90
2018-05-19T03:12:18.655Z,99.90
2018-05-19T03:13:21.197Z,99.90
2018-05-19T03:14:23.730Z,99.90
2018-05-19T03:15:27.020Z,99.90
2018-05-19T03:16:29.555Z,99.90
2018-05-19T03:17:32.119Z,99.90
2018-05-19T03:18:34.644Z,99.90
2018-05-19T03:19:37.180Z,99.90
2018-05-19T03:20:39.713Z,99.90
2018-05-19T03:21:42.283Z,99.90
2018-05-19T03:22:44.839Z,99.90
2018-05-19T03:23:47.368Z,99.90
2018-05-19T03:24:49.944Z,99.90
2018-05-19T03:25:52.470Z,99.90
2018-05-19T03:26:55.767Z,99.90
2018-05-19T03:27:58.313Z,99.90
2018-05-19T03:29:01.648Z,99.90
2018-05-19T03:30:04.187Z,99.90
2018-05-19T03:31:06.755Z,99.90
2018-05-19T03:32:09.307Z,99.90
2018-05-19T03:33:12.626Z,99.90
2018-05-19T03:34:15.167Z,99.90
2018-05-19T03:35:17.723Z,99.90
2018-05-19T03:36:21.008Z,99.90
2018-05-19T03:37:24.313Z,99.90
2018-05-19T03:38:26.892Z,99.90
2018-05-19T03:39:29.436Z,99.90
2018-05-19T03:40:31.976Z,99.90
2018-05-19T03:41:34.539Z,99.90
2018-05-19T03:42:37.077Z,99.90
2018-05-19T03:43:39.639Z,99.90
2018-05-19T03:44:42.182Z,99.90
2018-05-19T03:45:44.729Z,99.90
2018-05-19T03:46:48.073Z,99.90
2018-05-19T03:47:50.600Z,99.90
2018-05-19T03:48:53.132Z,99.90
2018-05-19T03:49:56.437Z,99.90
2018-05-19T03:50:58.971Z,99.90
2018-05-19T03:52:01.568Z,99.90
2018-05-19T03:53:04.103Z,99.90
2018-05-19T03:54:06.642Z,99.90
2018-05-19T03:55:09.988Z,99.90
2018-05-19T03:56:12.520Z,99.90
2018-05-19T03:57:26.859Z,99.90
2018-05-19T03:58:41.170Z,99.90
2018-05-19T03:59:55.512Z,99.90
2018-05-19T04:01:09.827Z,99.90
2018-05-19T04:02:23.120Z,99.90
2018-05-19T04:03:26.458Z,99.90
2018-05-19T04:04:29.003Z,99.90
2018-05-19T04:05:31.536Z,99.90
2018-05-19T04:06:34.057Z,99.90
2018-05-19T04:07:36.588Z,99.90
2018-05-19T04:08:39.168Z,99.90
2018-05-19T04:09:41.708Z,99.90
2018-05-19T04:10:45.044Z,99.90
2018-05-19T04:11:47.567Z,99.90
2018-05-19T04:12:50.879Z,99.90
2018-05-19T04:13:53.404Z,99.90
2018-05-19T04:14:56.699Z,99.90
2018-05-19T04:16:00.027Z,99.90
2018-05-19T04:17:02.564Z,99.90
2018-05-19T04:18:05.089Z,99.90
2018-05-19T04:19:07.633Z,99.90
2018-05-19T04:20:10.172Z,99.90
2018-05-19T04:21:12.744Z,99.90
2018-05-19T04:22:15.297Z,99.90
2018-05-19T04:23:17.821Z,99.90
2018-05-19T04:24:20.371Z,99.90
2018-05-19T04:25:22.915Z,99.90
2018-05-19T04:26:25.475Z,99.90
2018-05-19T04:27:28.001Z,99.90
2018-05-19T04:28:31.298Z,99.90
2018-05-19T04:29:34.603Z,99.90
2018-05-19T04:30:37.122Z,99.90
2018-05-19T04:31:39.686Z,99.90
2018-05-19T04:32:42.215Z,99.90
2018-05-19T04:33:44.798Z,99.90
2018-05-19T04:34:47.335Z,99.90
2018-05-19T04:35:49.855Z,99.90
2018-05-19T04:36:52.428Z,99.90
2018-05-19T04:37:54.969Z,99.90
2018-05-19T04:38:57.493Z,99.90
2018-05-19T04:40:00.021Z,99.90
2018-05-19T04:41:02.557Z,99.90
2018-05-19T04:42:05.114Z,99.90
2018-05-19T04:43:07.642Z,99.90
2018-05-19T04:44:10.933Z,99.90
2018-05-19T04:45:14.219Z,99.90
2018-05-19T04:46:16.744Z,99.90
2018-05-19T04:47:19.317Z,99.90
2018-05-19T04:48:21.875Z,99.90
2018-05-19T04:49:24.401Z,99.90
2018-05-19T04:50:26.923Z,99.90
2018-05-19T04:51:29.464Z,99.90
2018-05-19T04:52:31.992Z,99.90
2018-05-19T04:53:34.561Z,99.90
2018-05-19T04:54:37.104Z,99.90
2018-05-19T04:55:39.640Z,99.90
2018-05-19T04:56:42.230Z,99.90
2018-05-19T04:57:44.716Z,99.90
2018-05-19T04:58:47.288Z,99.90
2018-05-19T04:59:49.823Z,99.90
2018-05-19T05:00:52.359Z,99.90
2018-05-19T05:01:54.890Z,99.90
2018-05-19T05:02:57.424Z,99.90
2018-05-19T05:04:00.801Z,99.90
2018-05-19T05:05:03.312Z,99.90
2018-05-19T05:06:05.871Z,99.90
2018-05-19T05:07:08.416Z,99.90
2018-05-19T05:08:11.718Z,99.90
2018-05-19T05:09:14.267Z,99.90
2018-05-19T05:10:17.552Z,99.90
2018-05-19T05:11:20.879Z,99.90
2018-05-19T05:12:23.405Z,99.90
2018-05-19T05:13:26.695Z,99.90
2018-05-19T05:14:29.231Z,99.90
2018-05-19T05:15:31.815Z,99.90
2018-05-19T05:16:34.347Z,99.90
2018-05-19T05:17:36.873Z,99.90
2018-05-19T05:18:39.400Z,99.90
2018-05-19T05:19:42.000Z,99.90
2018-05-19T05:20:44.519Z,99.90
2018-05-19T05:21:47.039Z,99.90
2018-05-19T05:22:49.571Z,99.90
2018-05-19T05:23:52.095Z,99.90
2018-05-19T05:24:54.620Z,99.90
2018-05-19T05:25:57.948Z,99.90
2018-05-19T05:27:00.482Z,99.90
2018-05-19T05:28:03.021Z,99.90
2018-05-19T05:29:06.324Z,99.90
2018-05-19T05:30:09.659Z,99.90
2018-05-19T05:31:12.180Z,99.90
2018-05-19T05:32:14.712Z,99.90
2018-05-19T05:33:18.020Z,99.90
2018-05-19T05:34:21.357Z,99.90
2018-05-19T05:35:23.918Z,99.90
2018-05-19T05:36:26.448Z,99.90
2018-05-19T05:37:28.993Z,99.90
2018-05-19T05:38:32.290Z,99.90
2018-05-19T05:39:35.611Z,99.90
2018-05-19T05:40:38.153Z,99.90
2018-05-19T05:41:40.715Z,99.90
2018-05-19T05:42:43.246Z,99.90
2018-05-19T05:43:45.772Z,99.90
2018-05-19T05:44:48.309Z,99.90
2018-05-19T05:45:50.895Z,99.90
2018-05-19T05:46:53.423Z,99.90
2018-05-19T05:47:56.720Z,99.90
2018-05-19T05:49:00.012Z,99.90
2018-05-19T05:50:02.570Z,99.90
2018-05-19T05:51:05.962Z,99.90
2018-05-19T05:52:08.443Z,99.90
2018-05-19T05:53:11.010Z,99.90
2018-05-19T05:54:13.541Z,99.90
2018-05-19T05:55:16.062Z,99.90
2018-05-19T05:56:18.586Z,99.90
2018-05-19T05:57:21.890Z,99.90
2018-05-19T05:58:24.451Z,99.90
2018-05-19T05:59:26.984Z,99.90
2018-05-19T06:00:29.514Z,99.90
2018-05-19T06:01:32.045Z,99.90
2018-05-19T06:02:34.567Z,99.90
2018-05-19T06:03:37.136Z,99.90
2018-05-19T06:04:39.659Z,99.90
2018-05-19T06:05:42.182Z,99.90
2018-05-19T06:06:45.489Z,99.90
2018-05-19T06:07:48.024Z,99.90
2018-05-19T06:08:50.591Z,99.90
2018-05-19T06:09:53.124Z,99.90
2018-05-19T06:10:55.660Z,99.90
2018-05-19T06:11:58.184Z,99.90
2018-05-19T06:13:00.719Z,99.90
2018-05-19T06:14:03.288Z,99.90
2018-05-19T06:15:05.830Z,99.90
2018-05-19T06:16:08.358Z,99.90
2018-05-19T06:17:10.893Z,99.90
2018-05-19T06:18:13.414Z,99.90
2018-05-19T06:19:16.738Z,99.90
2018-05-19T06:20:19.280Z,99.90
2018-05-19T06:21:21.831Z,99.90
2018-05-19T06:22:24.361Z,99.90
2018-05-19T06:23:26.898Z,99.90
2018-05-19T06:24:29.451Z,99.90
2018-05-19T06:25:32.751Z,99.90
2018-05-19T06:26:35.273Z,99.90
2018-05-19T06:27:38.591Z,99.90
2018-05-19T06:28:41.117Z,99.90
2018-05-19T06:29:44.437Z,99.90
2018-05-19T06:30:46.970Z,99.90
2018-05-19T06:31:50.301Z,99.90
2018-05-19T06:32:52.822Z,99.90
2018-05-19T06:33:56.112Z,99.90
2018-05-19T06:34:59.407Z,99.90
2018-05-19T06:36:01.947Z,99.90
2018-05-19T06:37:05.285Z,99.90
2018-05-19T06:38:07.810Z,99.90
2018-05-19T06:39:11.101Z,99.90
2018-05-19T06:40:13.651Z,99.90
2018-05-19T06:41:16.987Z,99.90
2018-05-19T06:42:19.527Z,99.90
2018-05-19T06:43:22.055Z,99.90
2018-05-19T06:44:24.677Z,99.90
2018-05-19T06:45:27.203Z,99.90
2018-05-19T06:46:30.536Z,99.90
2018-05-19T06:47:33.071Z,99.90
2018-05-19T06:48:35.607Z,99.90
2018-05-19T06:49:38.138Z,99.90
2018-05-19T06:50:40.664Z,99.90
2018-05-19T06:51:43.991Z,99.90
2018-05-19T06:52:46.526Z,99.90
2018-05-19T06:53:49.065Z,99.90
2018-05-19T06:54:52.395Z,99.90
2018-05-19T06:55:54.926Z,99.90
2018-05-19T06:56:58.221Z,99.90
2018-05-19T06:58:00.749Z,99.90
2018-05-19T06:59:03.320Z,99.90
2018-05-19T07:00:05.843Z,99.90
2018-05-19T07:01:08.372Z,99.90
2018-05-19T07:02:11.659Z,99.90
2018-05-19T07:03:14.960Z,99.90
2018-05-19T07:04:17.517Z,99.90
2018-05-19T07:05:20.807Z,99.90
2018-05-19T07:06:23.331Z,99.90
2018-05-19T07:07:25.864Z,99.90
2018-05-19T07:08:28.380Z,99.90
2018-05-19T07:09:31.720Z,99.90
2018-05-19T07:10:34.245Z,99.90
2018-05-19T07:11:37.571Z,99.90
2018-05-19T07:12:40.096Z,99.90
2018-05-19T07:13:43.391Z,99.90
2018-05-19T07:14:45.952Z,99.90
2018-05-19T07:15:49.244Z,99.90
2018-05-19T07:16:51.764Z,99.90
2018-05-19T07:17:54.284Z,99.90
2018-05-19T07:18:56.803Z,99.90
2018-05-19T07:19:59.374Z,99.90
2018-05-19T07:21:01.904Z,99.90
2018-05-19T07:22:04.440Z,99.90
2018-05-19T07:23:06.980Z,99.90
2018-05-19T07:24:10.295Z,99.90
2018-05-19T07:25:12.854Z,99.90
2018-05-19T07:26:15.384Z,99.90
2018-05-19T07:27:17.908Z,99.90
2018-05-19T07:28:20.435Z,99.90
2018-05-19T07:29:23.780Z,99.90
2018-05-19T07:30:26.311Z,99.90
2018-05-19T07:31:28.843Z,99.90
2018-05-19T07:32:31.422Z,99.90
2018-05-19T07:33:33.984Z,99.90
2018-05-19T07:34:37.336Z,99.90
2018-05-19T07:35:39.918Z,99.90
2018-05-19T07:36:42.472Z,99.90
2018-05-19T07:37:45.005Z,99.90
2018-05-19T07:38:47.529Z,99.90
2018-05-19T07:39:50.052Z,99.90
2018-05-19T07:40:52.632Z,99.90
2018-05-19T07:41:55.152Z,99.90
2018-05-19T07:42:57.680Z,99.90
2018-05-19T07:44:00.196Z,99.90
2018-05-19T07:45:02.723Z,99.90
2018-05-19T07:46:05.281Z,99.90
2018-05-19T07:47:07.804Z,99.90
2018-05-19T07:48:10.332Z,99.90
2018-05-19T07:49:13.619Z,99.90
2018-05-19T07:50:16.920Z,99.90
2018-05-19T07:51:19.500Z,99.90
2018-05-19T07:52:22.042Z,99.90
2018-05-19T07:53:25.337Z,99.80
2018-05-19T07:54:27.872Z,99.80
2018-05-19T07:55:30.394Z,99.70
2018-05-19T07:56:32.961Z,99.40
2018-05-19T07:57:35.484Z,99.00
2018-05-19T07:58:38.040Z,99.20
2018-05-19T07:59:41.333Z,99.30
2018-05-19T08:00:44.619Z,98.70
2018-05-19T08:01:47.931Z,98.50
2018-05-19T08:02:50.500Z,98.50
2018-05-19T08:03:53.037Z,98.60
2018-05-19T08:04:55.570Z,97.80
2018-05-19T08:05:58.094Z,97.80
2018-05-19T08:07:00.632Z,98.20
2018-05-19T08:08:03.947Z,97.70
2018-05-19T08:09:06.477Z,97.70
2018-05-19T08:10:09.900Z,97.50
2018-05-19T08:11:12.428Z,97.50
2018-05-19T08:12:15.732Z,97.40
2018-05-19T08:13:18.261Z,97.50
2018-05-19T08:14:20.796Z,97.10
2018-05-19T08:15:23.363Z,96.80
2018-05-19T08:16:26.020Z,97.00
2018-05-19T08:17:28.553Z,97.00
2018-05-19T08:18:31.107Z,97.00
2018-05-19T08:19:33.632Z,97.20
2018-05-19T08:20:36.164Z,96.80
2018-05-19T08:21:38.689Z,96.90
2018-05-19T08:22:41.214Z,97.60
2018-05-19T08:23:43.777Z,97.50
2018-05-19T08:24:46.294Z,97.50
2018-05-19T08:25:48.814Z,97.20
2018-05-19T08:26:51.341Z,97.00
2018-05-19T08:27:54.631Z,97.50
2018-05-19T08:28:57.957Z,97.00
2018-05-19T08:30:00.484Z,97.00
2018-05-19T08:31:03.824Z,97.10
2018-05-19T08:32:06.350Z,97.00
2018-05-19T08:33:08.887Z,96.50
2018-05-19T08:34:12.221Z,95.70
2018-05-19T08:35:14.762Z,95.70
2018-05-19T08:36:18.062Z,96.00
2018-05-19T08:37:20.593Z,96.10
2018-05-19T08:38:23.920Z,96.10
2018-05-19T08:39:26.463Z,96.10
2018-05-19T08:40:28.991Z,95.80
2018-05-19T08:41:32.304Z,96.50
2018-05-19T08:42:35.633Z,96.00
2018-05-19T08:43:38.160Z,96.00
2018-05-19T08:44:41.462Z,95.20
2018-05-19T08:45:43.987Z,95.20
2018-05-19T08:46:46.549Z,95.70
2018-05-19T08:47:49.121Z,95.80
2018-05-19T08:48:51.646Z,94.90
2018-05-19T08:49:54.174Z,94.90
2018-05-19T08:50:57.466Z,95.00
2018-05-19T08:51:59.991Z,95.00
2018-05-19T08:53:02.559Z,95.40
2018-05-19T08:54:05.094Z,96.00
2018-05-19T08:55:07.620Z,95.40
2018-05-19T08:56:10.916Z,94.40
2018-05-19T08:57:13.440Z,94.40
2018-05-19T08:58:16.027Z,94.10
2018-05-19T08:59:19.321Z,94.40
2018-05-19T09:00:22.608Z,94.20
2018-05-19T09:01:25.152Z,94.20
2018-05-19T09:02:27.740Z,93.80
2018-05-19T09:03:31.031Z,93.10
2018-05-19T09:04:33.572Z,93.10
2018-05-19T09:05:36.875Z,94.20
2018-05-19T09:06:40.199Z,93.60
2018-05-19T09:07:42.743Z,93.60
2018-05-19T09:08:45.264Z,93.90
2018-05-19T09:09:47.792Z,93.50
2018-05-19T09:10:50.311Z,93.70
2018-05-19T09:11:53.619Z,92.90
2018-05-19T09:12:56.196Z,92.90
2018-05-19T09:13:58.724Z,93.30
2018-05-19T09:15:01.307Z,93.50
2018-05-19T09:16:04.620Z,93.60
2018-05-19T09:17:07.923Z,93.60
2018-05-19T09:18:10.450Z,93.40
2018-05-19T09:19:12.971Z,93.00
2018-05-19T09:20:15.525Z,92.80
2018-05-19T09:21:18.076Z,92.10
2018-05-19T09:22:20.631Z,91.70
2018-05-19T09:23:23.153Z,91.20
2018-05-19T09:24:25.687Z,91.10
2018-05-19T09:25:28.256Z,91.20
2018-05-19T09:26:30.807Z,91.30
2018-05-19T09:27:33.335Z,91.60
2018-05-19T09:28:36.669Z,92.40
2018-05-19T09:29:39.211Z,92.40
2018-05-19T09:30:41.738Z,92.30
2018-05-19T09:31:44.270Z,92.30
2018-05-19T09:32:46.853Z,92.00
2018-05-19T09:33:49.380Z,92.10
2018-05-19T09:34:51.904Z,91.90
2018-05-19T09:35:55.208Z,92.30
2018-05-19T09:36:58.543Z,91.60
2018-05-19T09:38:01.078Z,91.60
2018-05-19T09:39:03.601Z,91.90
2018-05-19T09:40:06.123Z,92.00
2018-05-19T09:41:08.652Z,92.30
2018-05-19T09:42:11.995Z,91.80
2018-05-19T09:43:14.528Z,91.80
2018-05-19T09:44:17.051Z,91.70
2018-05-19T09:45:20.344Z,92.40
2018-05-19T09:46:23.643Z,92.50
2018-05-19T09:47:26.224Z,92.50
2018-05-19T09:48:28.769Z,91.50
2018-05-19T09:49:31.348Z,91.10
2018-05-19T09:50:33.874Z,91.50
2018-05-19T09:51:36.399Z,90.70
2018-05-19T09:52:38.920Z,90.70
2018-05-19T09:53:42.218Z,91.20
2018-05-19T09:54:44.783Z,90.80
2018-05-19T09:55:48.083Z,90.50
2018-05-19T09:56:50.604Z,90.60
2018-05-19T09:57:53.136Z,90.80
2018-05-19T09:58:55.668Z,91.00
2018-05-19T09:59:58.999Z,90.50
2018-05-19T10:01:01.519Z,90.50
2018-05-19T10:02:04.809Z,90.40
2018-05-19T10:03:07.381Z,90.40
2018-05-19T10:04:09.950Z,90.20
2018-05-19T10:05:12.535Z,90.00
2018-05-19T10:06:15.818Z,89.50
2018-05-19T10:07:18.361Z,89.50
2018-05-19T10:08:20.888Z,90.90
2018-05-19T10:09:23.456Z,89.50
2018-05-19T10:10:25.975Z,89.30
2018-05-19T10:11:29.325Z,88.60
2018-05-19T10:12:31.811Z,88.50
2018-05-19T10:13:34.378Z,88.80
2018-05-19T10:14:36.903Z,89.70
2018-05-19T10:15:40.228Z,88.20
2018-05-19T10:16:42.760Z,88.20
2018-05-19T10:17:45.292Z,88.30
2018-05-19T10:18:47.857Z,87.70
2018-05-19T10:19:50.412Z,87.20
2018-05-19T10:20:52.967Z,86.40
2018-05-19T10:21:55.491Z,87.00
2018-05-19T10:22:58.087Z,87.50
2018-05-19T10:24:00.564Z,87.30
2018-05-19T10:25:03.132Z,87.90
2018-05-19T10:26:05.661Z,87.10
2018-05-19T10:27:08.185Z,88.30
2018-05-19T10:28:10.720Z,87.90
2018-05-19T10:29:13.250Z,86.00
2018-05-19T10:30:15.825Z,84.70
2018-05-19T10:31:18.366Z,85.10
2018-05-19T10:32:20.900Z,85.40
2018-05-19T10:33:23.426Z,83.90
2018-05-19T10:34:25.997Z,84.30
2018-05-19T10:35:28.551Z,84.80
2018-05-19T10:36:31.082Z,84.50
2018-05-19T10:37:33.618Z,84.50
2018-05-19T10:38:36.142Z,84.90
2018-05-19T10:39:38.684Z,84.00
2018-05-19T10:40:41.243Z,84.70
2018-05-19T10:41:43.773Z,82.40
2018-05-19T10:42:47.056Z,83.60
2018-05-19T10:43:50.346Z,83.10
2018-05-19T10:44:53.832Z,83.50
2018-05-19T10:45:57.164Z,83.80
2018-05-19T10:46:59.697Z,83.80
2018-05-19T10:48:02.221Z,85.40
2018-05-19T10:49:04.750Z,83.70
2018-05-19T10:50:07.281Z,83.40
2018-05-19T10:51:10.604Z,83.70
2018-05-19T10:52:13.134Z,83.70
2018-05-19T10:53:15.675Z,82.80
2018-05-19T10:54:18.222Z,83.40
2018-05-19T10:55:20.796Z,83.90
2018-05-19T10:56:23.333Z,83.90
2018-05-19T10:57:25.868Z,82.60
2018-05-19T10:58:28.401Z,81.80
2018-05-19T10:59:30.977Z,82.50
2018-05-19T11:00:34.286Z,82.40
2018-05-19T11:01:36.853Z,82.40
2018-05-19T11:02:39.379Z,82.20
2018-05-19T11:03:41.904Z,81.90
2018-05-19T11:04:44.433Z,83.00
2018-05-19T11:05:47.740Z,82.50
2018-05-19T11:06:50.313Z,82.40
2018-05-19T11:07:52.842Z,80.90
2018-05-19T11:08:56.188Z,80.30
2018-05-19T11:09:58.776Z,80.70
2018-05-19T11:11:01.297Z,79.60
2018-05-19T11:12:03.839Z,79.60
2018-05-19T11:13:07.172Z,81.00
2018-05-19T11:14:09.708Z,81.00
2018-05-19T11:15:12.228Z,81.50
2018-05-19T11:16:14.750Z,80.30
2018-05-19T11:17:17.277Z,80.90
2018-05-19T11:18:20.617Z,80.50
2018-05-19T11:19:23.156Z,80.50
2018-05-19T11:20:25.680Z,81.00
2018-05-19T11:21:28.204Z,80.50
2018-05-19T11:22:30.720Z,80.60
2018-05-19T11:23:33.280Z,80.10
2018-05-19T11:24:35.812Z,80.80
2018-05-19T11:25:38.411Z,80.70
2018-05-19T11:26:40.888Z,80.40
2018-05-19T11:27:44.192Z,79.30
2018-05-19T11:28:46.768Z,79.30
2018-05-19T11:29:49.296Z,79.60
2018-05-19T11:30:51.825Z,80.10
2018-05-19T11:31:54.348Z,80.90
2018-05-19T11:32:57.684Z,80.60
2018-05-19T11:34:00.259Z,80.60
2018-05-19T11:35:02.793Z,81.20
2018-05-19T11:36:05.324Z,80.20
2018-05-19T11:37:08.625Z,79.30
2018-05-19T11:38:11.180Z,79.30
2018-05-19T11:39:14.606Z,79.60
2018-05-19T11:40:17.141Z,79.40
2018-05-19T11:41:19.686Z,80.90
2018-05-19T11:42:22.224Z,79.10
2018-05-19T11:43:24.764Z,78.70
2018-05-19T11:44:27.344Z,78.10
2018-05-19T11:45:29.869Z,79.50
2018-05-19T11:46:33.167Z,79.10
2018-05-19T11:47:35.706Z,79.10
2018-05-19T11:48:39.009Z,78.00
2018-05-19T11:49:41.577Z,78.00
2018-05-19T11:50:44.210Z,76.90
2018-05-19T11:51:46.707Z,76.30
2018-05-19T11:52:50.008Z,77.80
2018-05-19T11:53:52.545Z,77.90
2018-05-19T11:54:55.841Z,76.10
2018-05-19T11:55:59.174Z,74.20
2018-05-19T11:57:01.796Z,74.30
2018-05-19T11:58:04.262Z,74.50
2018-05-19T11:59:06.802Z,73.80
2018-05-19T12:00:09.328Z,74.40
2018-05-19T12:01:11.891Z,74.20
2018-05-19T12:02:14.421Z,74.60
2018-05-19T12:03:17.712Z,76.20
2018-05-19T12:04:20.248Z,76.20
2018-05-19T12:05:22.810Z,75.50
2018-05-19T12:06:25.345Z,76.40
2018-05-19T12:07:27.879Z,74.70
2018-05-19T12:08:30.427Z,76.30
2018-05-19T12:09:33.755Z,73.10
2018-05-19T12:10:36.316Z,73.00
2018-05-19T12:11:38.855Z,73.60
2018-05-19T12:12:42.149Z,73.20
2018-05-19T12:13:44.695Z,73.20
2018-05-19T12:14:48.020Z,73.00
2018-05-19T12:15:50.583Z,72.90
2018-05-19T12:16:53.158Z,72.90
2018-05-19T12:17:55.688Z,74.30
2018-05-19T12:18:58.987Z,74.90
2018-05-19T12:20:01.577Z,74.80
2018-05-19T12:21:04.129Z,72.90
2018-05-19T12:22:06.656Z,72.70
2018-05-19T12:23:09.995Z,73.40
2018-05-19T12:24:12.537Z,73.30
2018-05-19T12:25:15.105Z,71.10
2018-05-19T12:26:17.635Z,70.70
2018-05-19T12:27:20.159Z,71.20
2018-05-19T12:28:22.685Z,70.90
2018-05-19T12:29:25.987Z,70.10
2018-05-19T12:30:28.556Z,70.20
2018-05-19T12:31:31.083Z,70.80
2018-05-19T12:32:33.610Z,69.20
2018-05-19T12:33:36.149Z,69.40
2018-05-19T12:34:38.728Z,69.20
2018-05-19T12:35:41.268Z,70.30
2018-05-19T12:36:44.572Z,72.10
2018-05-19T12:37:47.106Z,72.00
2018-05-19T12:38:49.643Z,70.80
2018-05-19T12:39:52.208Z,70.00
2018-05-19T12:40:54.787Z,70.80
2018-05-19T12:41:57.320Z,71.10
2018-05-19T12:42:59.854Z,68.90
2018-05-19T12:44:02.400Z,70.00
2018-05-19T12:45:04.930Z,70.80
2018-05-19T12:46:07.494Z,71.30
2018-05-19T12:47:10.034Z,72.50
2018-05-19T12:48:12.580Z,72.10
2018-05-19T12:49:15.919Z,71.80
2018-05-19T12:50:18.483Z,71.80
2018-05-19T12:51:21.070Z,71.00
2018-05-19T12:52:23.611Z,72.50
2018-05-19T12:53:26.144Z,72.10
2018-05-19T12:54:28.684Z,71.90
2018-05-19T12:55:32.012Z,72.00
2018-05-19T12:56:34.543Z,71.90
2018-05-19T12:57:37.846Z,70.20
2018-05-19T12:58:40.393Z,70.30
2018-05-19T12:59:43.679Z,67.30
2018-05-19T13:00:47.025Z,67.30
2018-05-19T13:01:49.637Z,67.30
2018-05-19T13:02:52.141Z,68.00
2018-05-19T13:03:54.671Z,66.70
2018-05-19T13:04:57.959Z,65.70
2018-05-19T13:06:00.493Z,65.70
2018-05-19T13:07:04.807Z,63.70
2018-05-19T13:08:07.344Z,64.30
2018-05-19T13:09:09.884Z,63.20
2018-05-19T13:10:12.422Z,61.20
2018-05-19T13:11:15.766Z,63.00
2018-05-19T13:12:18.324Z,63.00
2018-05-19T13:13:20.871Z,63.20
2018-05-19T13:14:23.407Z,61.10
2018-05-19T13:15:26.699Z,61.70
2018-05-19T13:16:29.269Z,61.60
2018-05-19T13:17:31.845Z,60.80
2018-05-19T13:18:34.388Z,59.00
2018-05-19T13:19:36.919Z,60.70
2018-05-19T13:20:39.478Z,60.80
2018-05-19T13:21:42.791Z,61.10
2018-05-19T13:22:45.317Z,61.10
2018-05-19T13:23:47.855Z,61.80
2018-05-19T13:24:50.423Z,60.80
2018-05-19T13:25:52.973Z,60.10
2018-05-19T13:26:56.256Z,61.70
2018-05-19T13:27:58.791Z,61.60
2018-05-19T13:29:01.354Z,62.00